Time;durP1;ratioP1;P1;durP2;ratioP2;P2;SDS_P1;SDS_P2;PMS_P1;PMS_P2;Temp;Humidity;BMP_temperature;BMP_pressure;BME280_temperature;BME280_humidity;BME280_pressure;Samples;Min_cycle;Max_cycle;Signal;HPM_P1;HPM_P2
2023/03/30 00:02:22;;;;;;;3.27;1.63;;;14.20;99.60;;;;;;5034472;28;20561;-76
2023/03/30 00:04:49;;;;;;;3.53;1.77;;;14.30;99.60;;;;;;5035309;28;20464;-76
2023/03/30 00:07:16;;;;;;;3.17;1.90;;;14.30;99.80;;;;;;5034618;28;20460;-76
2023/03/30 00:09:45;;;;;;;2.00;1.60;;;14.30;99.90;;;;;;5034174;28;20998;-76
2023/03/30 00:12:12;;;;;;;11.30;2.20;;;14.30;99.90;;;;;;5034746;28;20465;-76
2023/03/30 00:14:41;;;;;;;4.97;1.67;;;14.20;99.90;;;;;;5034030;28;20456;-76
2023/03/30 00:17:09;;;;;;;4.03;2.30;;;14.20;99.90;;;;;;5034168;28;20567;-76
2023/03/30 00:19:36;;;;;;;4.60;1.70;;;14.20;99.90;;;;;;5034441;28;20491;-76
2023/03/30 00:22:03;;;;;;;4.50;1.80;;;14.30;99.90;;;;;;5034223;28;20809;-76
2023/03/30 00:24:30;;;;;;;4.50;1.87;;;14.20;99.90;;;;;;5034482;28;20844;-76
2023/03/30 00:26:58;;;;;;;3.70;1.80;;;14.30;99.90;;;;;;5034139;28;20825;-77
2023/03/30 00:29:25;;;;;;;5.73;1.80;;;14.20;99.90;;;;;;5034008;28;21006;-77
2023/03/30 00:31:52;;;;;;;7.40;4.83;;;14.20;99.90;;;;;;5033810;28;20467;-76
2023/03/30 00:34:19;;;;;;;3.93;1.80;;;14.20;99.90;;;;;;5034530;28;20955;-76
2023/03/30 00:36:47;;;;;;;2.97;2.00;;;14.20;99.90;;;;;;5034139;28;20527;-77
2023/03/30 00:39:17;;;;;;;3.47;1.60;;;14.10;99.90;;;;;;5032840;28;20899;-76
2023/03/30 00:41:45;;;;;;;6.50;2.50;;;14.20;99.90;;;;;;5033503;28;20468;-77
2023/03/30 00:44:45;;;;;;;4.67;1.97;;;14.10;99.90;;;;;;5034074;28;20489;-77
2023/03/30 00:47:13;;;;;;;4.97;2.13;;;14.10;99.90;;;;;;5028822;28;20445;-76
2023/03/30 00:49:42;;;;;;;3.97;1.90;;;14.00;99.90;;;;;;5033632;28;20491;-76
2023/03/30 00:52:09;;;;;;;5.40;1.60;;;14.00;99.90;;;;;;5033979;28;20525;-77
2023/03/30 00:54:36;;;;;;;2.67;1.20;;;14.00;99.90;;;;;;5033979;28;20540;-77
2023/03/30 00:57:04;;;;;;;3.23;1.67;;;14.00;99.90;;;;;;5033826;28;20890;-76
2023/03/30 00:59:30;;;;;;;3.13;1.53;;;14.00;99.90;;;;;;5043001;28;21053;-76
2023/03/30 01:01:57;;;;;;;2.80;1.97;;;13.90;99.90;;;;;;5051867;28;20463;-76
2023/03/30 01:04:27;;;;;;;5.50;2.00;;;13.90;99.90;;;;;;5053427;28;20455;-77
2023/03/30 01:06:56;;;;;;;3.83;2.10;;;13.90;99.90;;;;;;5053758;28;20467;-76
2023/03/30 01:09:25;;;;;;;3.10;1.57;;;13.90;99.90;;;;;;5052801;28;20926;-76
2023/03/30 01:11:52;;;;;;;7.43;2.00;;;14.00;99.90;;;;;;5053162;28;20662;-76
2023/03/30 01:14:18;;;;;;;3.60;2.67;;;14.00;99.90;;;;;;5052945;28;20467;-76
2023/03/30 01:16:54;;;;;;;2.93;1.80;;;14.00;99.90;;;;;;5052411;28;20899;-76
2023/03/30 01:20:11;;;;;;;4.60;1.90;;;13.90;99.90;;;;;;5052766;28;20506;-76
2023/03/30 01:22:54;;;;;;;2.13;1.37;;;14.00;99.90;;;;;;5052790;28;20518;-76
2023/03/30 01:25:43;;;;;;;4.67;2.23;;;13.90;99.90;;;;;;5052964;28;20463;-76
2023/03/30 01:28:28;;;;;;;1.97;1.63;;;13.90;99.90;;;;;;5052368;28;20510;-75
2023/03/30 01:31:14;;;;;;;4.50;1.67;;;13.90;99.90;;;;;;5051931;28;20483;-74
2023/03/30 01:34:08;;;;;;;3.27;2.17;;;13.90;99.90;;;;;;5051927;28;20464;-75
2023/03/30 01:36:52;;;;;;;6.13;2.13;;;13.80;99.90;;;;;;5008042;28;21333;-75
2023/03/30 01:39:32;;;;;;;11.17;2.33;;;13.80;99.90;;;;;;5051988;28;20830;-75
2023/03/30 01:42:03;;;;;;;3.97;1.73;;;13.60;99.90;;;;;;5052344;28;20459;-75
2023/03/30 01:44:36;;;;;;;7.80;2.78;;;13.50;99.90;;;;;;5052006;28;20459;-75
2023/03/30 01:47:15;;;;;;;2.63;1.33;;;13.50;99.90;;;;;;5052070;28;20197;-75
2023/03/30 01:49:48;;;;;;;3.10;1.63;;;13.40;99.90;;;;;;5051953;28;20487;-75
2023/03/30 01:52:22;;;;;;;4.03;2.03;;;13.20;99.90;;;;;;5052520;28;20474;-75
2023/03/30 01:54:55;;;;;;;3.37;1.83;;;13.20;99.90;;;;;;5052428;28;20465;-75
2023/03/30 01:57:30;;;;;;;6.97;3.37;;;13.20;99.90;;;;;;5051624;28;20543;-75
2023/03/30 02:00:00;;;;;;;2.73;2.20;;;13.10;99.90;;;;;;5051973;28;20540;-75
2023/03/30 02:02:31;;;;;;;4.93;1.60;;;13.00;99.90;;;;;;5052071;28;20482;-75
2023/03/30 02:05:01;;;;;;;3.33;2.57;;;13.00;99.90;;;;;;5052553;28;20489;-75
2023/03/30 02:07:30;;;;;;;4.10;1.80;;;12.90;99.90;;;;;;5051748;28;20459;-75
2023/03/30 02:10:03;;;;;;;2.77;2.13;;;12.80;99.90;;;;;;5052424;28;20233;-75
2023/03/30 02:12:31;;;;;;;8.70;2.22;;;12.80;99.90;;;;;;5051783;28;20455;-75
2023/03/30 02:15:03;;;;;;;3.72;1.88;;;12.80;99.90;;;;;;5052486;28;20288;-75
2023/03/30 02:17:30;;;;;;;4.95;2.13;;;12.80;99.90;;;;;;5051020;28;20898;-76
2023/03/30 02:19:58;;;;;;;3.95;2.05;;;12.90;99.90;;;;;;5051611;28;20253;-74
2023/03/30 02:22:28;;;;;;;6.47;2.20;;;12.80;99.90;;;;;;5051072;28;20212;-75
2023/03/30 02:24:57;;;;;;;5.00;2.22;;;12.80;99.90;;;;;;5050896;28;20231;-74
2023/03/30 02:27:26;;;;;;;4.03;1.95;;;12.80;99.90;;;;;;5050914;28;20193;-76
2023/03/30 02:29:55;;;;;;;4.43;1.98;;;12.80;99.90;;;;;;5051208;28;20224;-75
2023/03/30 02:32:24;;;;;;;3.60;1.77;;;12.80;99.90;;;;;;5050968;28;20227;-75
2023/03/30 02:35:09;;;;;;;3.23;2.20;;;12.90;99.90;;;;;;5051170;28;20467;-75
2023/03/30 02:38:15;;;;;;;3.92;1.73;;;12.90;99.90;;;;;;5051034;28;20952;-75
2023/03/30 02:40:53;;;;;;;2.53;1.50;;;12.90;99.90;;;;;;5048216;28;20220;-76
2023/03/30 02:43:39;;;;;;;7.10;2.10;;;12.90;99.90;;;;;;5051131;28;20205;-75
2023/03/30 02:46:34;;;;;;;4.57;1.90;;;12.90;99.90;;;;;;5051564;28;20197;-75
2023/03/30 02:49:13;;;;;;;2.63;1.80;;;13.00;99.90;;;;;;5028607;28;20260;-75
2023/03/30 02:51:45;;;;;;;5.80;1.93;;;13.00;99.90;;;;;;5031156;28;20460;-75
2023/03/30 02:54:23;;;;;;;2.40;1.70;;;13.00;99.90;;;;;;5031391;28;20927;-75
2023/03/30 02:56:56;;;;;;;3.50;1.90;;;12.90;99.90;;;;;;5023300;28;20221;-75
2023/03/30 02:59:30;;;;;;;5.43;2.70;;;13.00;99.90;;;;;;5030602;28;20551;-75
2023/03/30 03:02:00;;;;;;;5.60;2.15;;;12.90;99.90;;;;;;5031120;28;20467;-75
2023/03/30 03:04:28;;;;;;;2.53;1.70;;;12.70;99.90;;;;;;5031003;28;20202;-75
2023/03/30 03:06:55;;;;;;;4.10;2.55;;;12.60;99.90;;;;;;5031222;28;20193;-75
2023/03/30 03:09:24;;;;;;;3.92;1.70;;;12.40;99.90;;;;;;5030693;28;20198;-75
2023/03/30 03:11:51;;;;;;;4.90;2.90;;;12.30;99.90;;;;;;5030833;28;20547;-75
2023/03/30 03:14:19;;;;;;;6.78;2.15;;;12.20;99.90;;;;;;5031686;28;20217;-75
2023/03/30 03:16:48;;;;;;;9.00;2.42;;;12.20;99.90;;;;;;5030812;28;20202;-75
2023/03/30 03:19:14;;;;;;;3.05;1.77;;;12.10;99.90;;;;;;5031139;28;20603;-75
2023/03/30 03:21:41;;;;;;;3.72;2.25;;;12.00;99.90;;;;;;5033890;28;20562;-75
2023/03/30 03:24:08;;;;;;;3.80;2.15;;;12.00;99.90;;;;;;5044955;28;20210;-75
2023/03/30 03:26:35;;;;;;;4.18;1.90;;;12.00;99.90;;;;;;5033874;28;20213;-75
2023/03/30 03:29:02;;;;;;;4.53;2.20;;;12.00;99.90;;;;;;5034659;28;20197;-75
2023/03/30 03:31:29;;;;;;;10.32;2.60;;;11.90;99.90;;;;;;5035616;28;20226;-75
2023/03/30 03:33:57;;;;;;;5.18;2.13;;;11.90;99.90;;;;;;5049931;28;20206;-75
2023/03/30 03:36:23;;;;;;;4.85;2.15;;;11.90;99.90;;;;;;5034890;28;20209;-75
2023/03/30 03:38:51;;;;;;;2.38;1.90;;;11.90;99.90;;;;;;5034004;28;20218;-75
2023/03/30 03:41:17;;;;;;;4.95;2.25;;;11.80;99.90;;;;;;5034910;28;20249;-75
2023/03/30 03:46:12;;;;;;;3.47;2.30;;;11.80;99.90;;;;;;5011979;28;20579;-75
2023/03/30 03:48:39;;;;;;;6.05;2.80;;;11.70;99.90;;;;;;5013528;28;20201;-75
2023/03/30 03:51:08;;;;;;;5.57;2.80;;;11.70;99.90;;;;;;4997508;28;20238;-74
2023/03/30 03:53:35;;;;;;;6.22;2.35;;;11.70;99.90;;;;;;4995380;28;20207;-75
2023/03/30 03:56:02;;;;;;;3.28;2.40;;;11.70;99.90;;;;;;5012924;28;20206;-77
2023/03/30 03:58:30;;;;;;;3.17;1.58;;;11.80;99.90;;;;;;5004740;28;20278;-77
2023/03/30 04:01:01;;;;;;;5.20;1.50;;;11.80;99.90;;;;;;5008164;28;20227;-77
2023/03/30 04:03:29;;;;;;;2.40;2.00;;;11.80;99.90;;;;;;4993305;28;20694;-76
2023/03/30 04:05:59;;;;;;;3.08;2.15;;;11.80;99.90;;;;;;4998282;28;20210;-76
2023/03/30 04:08:28;;;;;;;9.52;2.75;;;11.80;99.90;;;;;;5004355;28;20218;-76
2023/03/30 04:10:55;;;;;;;2.42;2.22;;;11.90;99.90;;;;;;4998105;28;20250;-77
2023/03/30 04:13:21;;;;;;;8.15;2.10;;;11.90;99.90;;;;;;5005588;28;20674;-78
2023/03/30 04:15:48;;;;;;;6.55;2.85;;;11.90;99.90;;;;;;5006159;28;20736;-78
2023/03/30 04:18:15;;;;;;;2.88;2.58;;;11.90;99.90;;;;;;5006233;28;20230;-78
2023/03/30 04:20:42;;;;;;;4.20;1.80;;;11.90;99.90;;;;;;4993357;28;20261;-78
2023/03/30 04:23:09;;;;;;;2.45;2.15;;;11.90;99.90;;;;;;4993876;28;20199;-78
2023/03/30 04:25:38;;;;;;;7.25;2.30;;;11.90;99.90;;;;;;5012020;28;20249;-77
2023/03/30 04:28:05;;;;;;;4.32;2.78;;;11.90;99.90;;;;;;5013783;28;20233;-78
2023/03/30 04:30:32;;;;;;;3.92;2.10;;;11.90;99.90;;;;;;5013252;28;20222;-77
2023/03/30 04:33:03;;;;;;;5.30;2.30;;;11.90;99.90;;;;;;5014245;28;20206;-77
2023/03/30 04:35:31;;;;;;;3.45;2.30;;;11.90;99.90;;;;;;4995292;28;20199;-78
2023/03/30 04:37:59;;;;;;;5.38;2.47;;;11.90;99.90;;;;;;4997509;28;20854;-75
2023/03/30 04:40:26;;;;;;;6.47;2.95;;;11.90;99.90;;;;;;5012496;22;20215;-68
2023/03/30 04:42:54;;;;;;;3.10;2.10;;;11.90;99.90;;;;;;5030544;28;20735;-69
2023/03/30 04:45:21;;;;;;;5.43;2.00;;;12.00;99.90;;;;;;5031317;28;20206;-69
2023/03/30 04:47:47;;;;;;;10.60;2.83;;;12.00;99.90;;;;;;5031226;28;20202;-70
2023/03/30 04:50:15;;;;;;;3.45;1.95;;;12.00;99.90;;;;;;5031312;28;20480;-69
2023/03/30 04:52:42;;;;;;;6.50;2.17;;;12.00;99.90;;;;;;5030035;28;20289;-69
2023/03/30 04:55:10;;;;;;;7.03;2.90;;;12.00;99.90;;;;;;5030837;28;20208;-69
2023/03/30 04:57:37;;;;;;;5.18;1.80;;;12.00;99.90;;;;;;5030322;28;21025;-68
2023/03/30 05:00:08;;;;;;;6.13;2.10;;;12.10;99.90;;;;;;5031403;28;20230;-69
2023/03/30 05:02:35;;;;;;;4.75;1.90;;;12.10;99.90;;;;;;5030930;28;20255;-69
2023/03/30 05:05:01;;;;;;;8.05;2.92;;;12.10;99.90;;;;;;5031031;28;20202;-69
2023/03/30 05:07:28;;;;;;;8.60;2.20;;;12.10;99.90;;;;;;5030949;28;20205;-69
2023/03/30 05:09:55;;;;;;;4.80;1.83;;;12.10;99.90;;;;;;5030869;28;20225;-69
2023/03/30 05:12:21;;;;;;;9.77;2.47;;;12.10;99.90;;;;;;5031374;28;20260;-68
2023/03/30 05:14:48;;;;;;;3.90;2.10;;;12.10;99.90;;;;;;5031221;28;20936;-69
2023/03/30 05:17:16;;;;;;;4.72;2.20;;;12.10;99.90;;;;;;5031264;28;20202;-69
2023/03/30 05:19:43;;;;;;;3.67;2.00;;;12.10;99.90;;;;;;5030557;28;20220;-69
2023/03/30 05:22:09;;;;;;;4.57;2.57;;;12.10;99.90;;;;;;5031093;28;20472;-69
2023/03/30 05:24:36;;;;;;;10.97;2.13;;;12.10;99.90;;;;;;5030594;28;20467;-69
2023/03/30 05:27:03;;;;;;;5.57;2.28;;;12.10;99.90;;;;;;5030983;28;20460;-69
2023/03/30 05:29:31;;;;;;;6.70;2.13;;;12.10;99.90;;;;;;5030478;28;20197;-69
2023/03/30 05:31:57;;;;;;;9.73;2.77;;;12.10;99.90;;;;;;5030688;28;20556;-69
2023/03/30 05:34:26;;;;;;;3.40;2.50;;;12.10;99.90;;;;;;5030572;28;20953;-69
2023/03/30 05:36:52;;;;;;;10.03;3.93;;;12.10;99.90;;;;;;5030688;28;20206;-69
2023/03/30 05:39:22;;;;;;;3.40;2.08;;;12.10;99.90;;;;;;5030094;28;20476;-68
2023/03/30 05:41:48;;;;;;;6.30;2.87;;;12.10;99.90;;;;;;5030422;28;20683;-69
2023/03/30 05:44:15;;;;;;;5.83;2.80;;;12.10;99.90;;;;;;5030866;28;20467;-69
2023/03/30 05:46:42;;;;;;;5.83;2.50;;;12.10;99.90;;;;;;5030038;28;21292;-69
2023/03/30 05:49:08;;;;;;;5.75;1.80;;;12.20;99.90;;;;;;5029948;28;20872;-69
2023/03/30 05:51:37;;;;;;;8.48;2.38;;;12.20;99.90;;;;;;5030227;28;20968;-69
2023/03/30 05:54:04;;;;;;;4.05;2.10;;;12.20;99.90;;;;;;5030652;28;20205;-69
2023/03/30 05:56:30;;;;;;;6.10;2.90;;;12.30;99.90;;;;;;5030086;28;20206;-69
2023/03/30 05:58:57;;;;;;;4.95;2.25;;;12.30;99.90;;;;;;5030188;28;20484;-69
2023/03/30 06:01:25;;;;;;;12.25;2.67;;;12.30;99.90;;;;;;5030180;28;20244;-69
2023/03/30 06:03:51;;;;;;;4.90;3.05;;;12.40;99.90;;;;;;5030389;28;20584;-69
2023/03/30 06:06:18;;;;;;;3.30;2.00;;;12.40;99.90;;;;;;5030332;28;20209;-69
2023/03/30 06:08:46;;;;;;;2.75;1.52;;;12.40;99.90;;;;;;5029546;28;20534;-69
2023/03/30 06:11:13;;;;;;;5.57;2.60;;;12.40;99.90;;;;;;5030142;28;20232;-68
2023/03/30 06:13:40;;;;;;;4.53;2.10;;;12.40;99.90;;;;;;5029941;28;20221;-69
2023/03/30 06:16:07;;;;;;;6.47;2.60;;;12.40;99.90;;;;;;5030112;28;20237;-69
2023/03/30 06:18:34;;;;;;;3.83;2.20;;;12.40;99.90;;;;;;5029711;28;20484;-69
2023/03/30 06:21:05;;;;;;;5.50;2.60;;;12.40;99.90;;;;;;5030226;28;20225;-69
2023/03/30 06:23:32;;;;;;;8.57;2.30;;;12.40;99.90;;;;;;5029891;28;20202;-68
2023/03/30 06:26:00;;;;;;;3.47;2.03;;;12.40;99.90;;;;;;5030046;28;20947;-69
2023/03/30 06:28:27;;;;;;;4.63;2.53;;;12.40;99.90;;;;;;5029771;28;20460;-68
2023/03/30 06:30:54;;;;;;;4.90;2.20;;;12.40;99.90;;;;;;5029976;28;20226;-68
2023/03/30 06:33:20;;;;;;;5.80;2.30;;;12.50;99.90;;;;;;5030016;28;20209;-68
2023/03/30 06:35:48;;;;;;;6.33;2.30;;;12.50;99.90;;;;;;5029896;28;20193;-69
2023/03/30 06:38:16;;;;;;;7.20;4.27;;;12.50;99.90;;;;;;5029901;28;20611;-69
2023/03/30 06:40:43;;;;;;;8.33;3.33;;;12.50;99.90;;;;;;5029620;28;20975;-68
2023/03/30 06:43:16;;;;;;;7.07;2.13;;;12.60;99.90;;;;;;5030063;28;20487;-69
2023/03/30 06:45:43;;;;;;;2.85;2.20;;;12.70;99.90;;;;;;5029639;28;20469;-69
2023/03/30 06:48:09;;;;;;;7.90;2.23;;;12.70;99.90;;;;;;5029781;28;20194;-69
2023/03/30 06:50:37;;;;;;;3.33;2.20;;;12.80;99.90;;;;;;5029474;28;20488;-69
2023/03/30 06:53:04;;;;;;;5.07;2.20;;;12.90;99.90;;;;;;5029824;28;21058;-69
2023/03/30 06:55:31;;;;;;;6.70;2.63;;;13.00;99.90;;;;;;5029760;28;20885;-70
2023/03/30 06:57:58;;;;;;;9.00;3.00;;;13.10;99.90;;;;;;5029434;28;20471;-69
2023/03/30 07:00:26;;;;;;;3.80;2.70;;;13.30;99.90;;;;;;5031110;28;20484;-70
2023/03/30 07:02:54;;;;;;;5.90;2.57;;;13.40;99.90;;;;;;5033467;28;20475;-69
2023/03/30 07:05:23;;;;;;;5.30;2.30;;;13.40;99.90;;;;;;5033719;28;20930;-69
2023/03/30 07:07:50;;;;;;;8.87;2.50;;;13.40;99.90;;;;;;5025308;28;20460;-69
2023/03/30 07:10:17;;;;;;;5.40;1.80;;;13.50;99.90;;;;;;5033480;28;20855;-69
2023/03/30 07:12:44;;;;;;;8.20;2.70;;;13.40;99.90;;;;;;5033108;28;20468;-69
2023/03/30 07:15:12;;;;;;;3.00;1.90;;;13.40;99.90;;;;;;5033416;28;20467;-70
2023/03/30 07:17:40;;;;;;;9.00;2.50;;;13.30;99.90;;;;;;5043081;28;20814;-68
2023/03/30 07:20:09;;;;;;;3.13;2.37;;;13.20;99.90;;;;;;5053276;28;20494;-69
2023/03/30 07:22:36;;;;;;;4.20;2.07;;;13.20;99.90;;;;;;5052719;28;20466;-69
2023/03/30 07:25:03;;;;;;;7.20;2.60;;;13.20;99.90;;;;;;5053065;28;20459;-69
2023/03/30 07:27:30;;;;;;;6.70;2.73;;;13.20;99.90;;;;;;5052435;28;20473;-69
2023/03/30 07:29:57;;;;;;;5.93;2.77;;;13.20;99.90;;;;;;5053048;28;20477;-69
2023/03/30 07:32:24;;;;;;;7.83;2.90;;;13.10;99.90;;;;;;5033284;28;20456;-69
2023/03/30 07:34:53;;;;;;;5.77;2.87;;;13.00;99.90;;;;;;5033203;28;20468;-67
2023/03/30 07:37:19;;;;;;;4.10;2.07;;;13.00;99.90;;;;;;5032419;28;20626;-67
2023/03/30 07:39:46;;;;;;;6.17;2.77;;;13.00;99.90;;;;;;5032929;28;20480;-67
2023/03/30 07:42:13;;;;;;;5.93;2.50;;;13.00;99.90;;;;;;5033052;28;20495;-68
2023/03/30 07:44:39;;;;;;;5.60;2.73;;;12.90;99.90;;;;;;5032732;28;20464;-68
2023/03/30 07:47:06;;;;;;;6.07;2.30;;;12.90;99.90;;;;;;5032594;28;20534;-67
2023/03/30 07:49:33;;;;;;;5.67;2.60;;;12.80;99.90;;;;;;5032006;28;20476;-67
2023/03/30 07:52:01;;;;;;;3.10;2.33;;;12.80;99.90;;;;;;5032706;28;20460;-67
2023/03/30 07:54:28;;;;;;;4.57;2.50;;;12.80;99.90;;;;;;5032434;28;21281;-67
2023/03/30 07:56:55;;;;;;;5.80;2.50;;;12.80;99.90;;;;;;5032504;28;20467;-68
2023/03/30 07:59:23;;;;;;;6.13;2.47;;;12.80;99.90;;;;;;5031991;28;20560;-68
2023/03/30 08:01:51;;;;;;;6.10;2.50;;;12.80;99.90;;;;;;5024780;28;20827;-68
2023/03/30 08:04:18;;;;;;;6.63;2.90;;;12.80;99.90;;;;;;5043068;28;20467;-68
2023/03/30 08:06:46;;;;;;;5.67;3.07;;;12.80;99.90;;;;;;5051422;28;20481;-68
2023/03/30 08:09:14;;;;;;;6.13;3.40;;;12.80;99.90;;;;;;5051470;28;20467;-68
2023/03/30 08:11:42;;;;;;;3.23;2.10;;;12.60;99.90;;;;;;5048506;28;20544;-68
2023/03/30 08:14:09;;;;;;;10.30;3.70;;;12.60;99.90;;;;;;5032032;28;20456;-68
2023/03/30 08:16:37;;;;;;;5.00;2.20;;;12.50;99.90;;;;;;5031799;28;20471;-68
2023/03/30 08:19:04;;;;;;;4.20;2.50;;;12.60;99.90;;;;;;5033342;28;20835;-68
2023/03/30 08:21:31;;;;;;;5.40;3.60;;;12.60;99.90;;;;;;5031708;28;20484;-68
2023/03/30 08:23:58;;;;;;;6.57;2.93;;;12.60;99.90;;;;;;5031653;28;20469;-68
2023/03/30 08:26:29;;;;;;;2.30;2.10;;;12.60;99.90;;;;;;5031384;28;20831;-68
2023/03/30 08:28:57;;;;;;;7.63;2.57;;;12.60;99.90;;;;;;5031794;28;20463;-68
2023/03/30 08:31:24;;;;;;;9.27;3.47;;;12.60;99.90;;;;;;5031352;28;20488;-68
2023/03/30 08:33:51;;;;;;;5.13;3.30;;;12.60;99.90;;;;;;5031881;28;20871;-68
2023/03/30 08:36:20;;;;;;;5.80;2.77;;;12.60;99.90;;;;;;5031369;28;21157;-68
2023/03/30 08:38:47;;;;;;;2.23;1.87;;;12.60;99.90;;;;;;5031298;28;20484;-68
2023/03/30 08:41:43;;;;;;;5.73;2.10;;;12.70;99.90;;;;;;5031192;28;20991;-69
2023/03/30 08:44:23;;;;;;;6.27;2.10;;;12.70;99.90;;;;;;5016271;28;20461;-68
2023/03/30 08:46:50;;;;;;;4.03;2.23;;;12.80;99.90;;;;;;5031182;28;21095;-68
2023/03/30 08:49:21;;;;;;;4.07;1.80;;;12.80;99.90;;;;;;5030696;28;20456;-68
2023/03/30 08:51:51;;;;;;;4.50;2.00;;;12.70;99.90;;;;;;5031553;28;20548;-68
2023/03/30 08:54:24;;;;;;;5.57;2.83;;;12.60;99.90;;;;;;5027156;28;20460;-68
2023/03/30 08:57:00;;;;;;;4.40;2.23;;;12.40;99.90;;;;;;5023658;28;20468;-68
2023/03/30 08:59:35;;;;;;;3.30;1.70;;;12.30;99.90;;;;;;5030367;28;20483;-68
2023/03/30 09:02:11;;;;;;;7.13;3.47;;;12.20;99.90;;;;;;5031131;28;20954;-68
2023/03/30 09:04:46;;;;;;;4.93;2.53;;;12.10;99.90;;;;;;5031038;28;20954;-67
2023/03/30 09:07:19;;;;;;;2.03;1.70;;;12.00;99.90;;;;;;5030642;28;20211;-67
2023/03/30 09:09:50;;;;;;;3.00;1.60;;;11.90;99.90;;;;;;5030712;28;20751;-68
2023/03/30 09:12:22;;;;;;;2.72;2.33;;;11.90;99.90;;;;;;5030740;28;20823;-68
2023/03/30 09:14:55;;;;;;;5.30;1.63;;;11.90;99.90;;;;;;5031516;28;20267;-68
2023/03/30 09:17:28;;;;;;;3.15;1.80;;;11.80;99.90;;;;;;5030546;28;20312;-67
2023/03/30 09:20:01;;;;;;;1.80;1.70;;;11.80;99.90;;;;;;5030934;28;20222;-68
2023/03/30 09:22:33;;;;;;;1.95;1.52;;;11.70;99.90;;;;;;5029785;28;20216;-68
2023/03/30 09:25:00;;;;;;;2.30;1.50;;;11.70;99.90;;;;;;5030304;28;20205;-68
2023/03/30 09:27:34;;;;;;;2.95;1.73;;;11.60;99.90;;;;;;5035392;28;20271;-68
2023/03/30 09:30:18;;;;;;;5.70;1.90;;;11.60;99.90;;;;;;5042340;28;20245;-67
2023/03/30 09:32:57;;;;;;;2.08;1.98;;;11.70;99.90;;;;;;5049928;28;20221;-68
2023/03/30 09:35:31;;;;;;;3.83;1.65;;;11.80;99.90;;;;;;5050279;28;20232;-68
2023/03/30 09:37:57;;;;;;;1.60;1.50;;;11.80;99.90;;;;;;5048443;28;20215;-67
2023/03/30 09:40:37;;;;;;;3.85;1.85;;;11.90;99.90;;;;;;5049344;28;20247;-68
2023/03/30 09:43:14;;;;;;;2.95;1.75;;;11.90;99.90;;;;;;5049814;28;20289;-68
2023/03/30 09:45:44;;;;;;;3.60;1.50;;;11.80;99.90;;;;;;5049832;28;20204;-68
2023/03/30 09:48:11;;;;;;;1.95;1.60;;;11.90;99.90;;;;;;5048495;28;20992;-68
2023/03/30 09:50:40;;;;;;;1.70;1.60;;;11.90;99.90;;;;;;5045752;28;20663;-68
2023/03/30 09:53:19;;;;;;;4.23;1.70;;;12.00;99.90;;;;;;5044116;28;20209;-68
2023/03/30 09:55:58;;;;;;;2.25;2.03;;;12.20;99.90;;;;;;5030081;28;20460;-68
2023/03/30 09:58:31;;;;;;;3.28;1.85;;;12.40;99.90;;;;;;5029731;28;20201;-68
2023/03/30 10:01:05;;;;;;;3.45;1.73;;;12.50;99.90;;;;;;5027454;28;20222;-68
2023/03/30 10:03:33;;;;;;;3.60;2.00;;;12.50;99.90;;;;;;5044953;28;20579;-67
2023/03/30 10:06:03;;;;;;;3.90;2.05;;;12.60;99.90;;;;;;5030577;28;20456;-69
2023/03/30 10:08:30;;;;;;;2.40;1.87;;;12.60;99.90;;;;;;5034436;28;20201;-68
2023/03/30 10:11:00;;;;;;;1.73;1.63;;;12.70;99.90;;;;;;5029179;28;20486;-67
2023/03/30 10:13:31;;;;;;;3.33;2.53;;;12.80;99.90;;;;;;5037605;28;20467;-69
2023/03/30 10:16:04;;;;;;;1.70;1.60;;;13.10;99.90;;;;;;5049674;28;20487;-69
2023/03/30 10:18:40;;;;;;;2.80;2.33;;;13.20;99.90;;;;;;5049666;28;20470;-68
2023/03/30 10:21:18;;;;;;;3.63;2.23;;;13.50;99.90;;;;;;5046060;28;20495;-69
2023/03/30 10:23:47;;;;;;;3.47;2.10;;;13.70;99.90;;;;;;5029782;28;20498;-68
2023/03/30 10:26:17;;;;;;;2.20;2.00;;;13.90;99.90;;;;;;5029509;28;20472;-68
2023/03/30 10:28:56;;;;;;;3.40;2.00;;;14.00;99.90;;;;;;5029683;28;20483;-68
2023/03/30 10:31:26;;;;;;;2.37;2.10;;;14.00;99.90;;;;;;5029703;28;20556;-68
2023/03/30 10:33:57;;;;;;;2.00;1.80;;;14.00;99.90;;;;;;5030496;28;20950;-68
2023/03/30 10:36:30;;;;;;;3.77;2.23;;;13.90;99.90;;;;;;5033707;28;20461;-68
2023/03/30 10:39:05;;;;;;;2.60;1.97;;;13.90;99.90;;;;;;5032986;28;20940;-68
2023/03/30 10:41:31;;;;;;;3.40;1.80;;;13.70;99.90;;;;;;5033861;28;20509;-68
2023/03/30 10:44:06;;;;;;;5.60;2.00;;;13.60;99.90;;;;;;5033738;28;20535;-67
2023/03/30 10:46:34;;;;;;;3.77;2.13;;;13.50;99.90;;;;;;5033473;28;20463;-68
2023/03/30 10:49:12;;;;;;;3.00;2.20;;;13.50;99.90;;;;;;5033043;28;20821;-68
2023/03/30 10:51:51;;;;;;;3.30;1.87;;;13.30;99.90;;;;;;5033762;28;20467;-67
2023/03/30 10:54:26;;;;;;;3.03;2.20;;;13.20;99.90;;;;;;5033563;28;20478;-67
2023/03/30 10:56:57;;;;;;;4.00;1.83;;;13.00;99.90;;;;;;5025845;28;20525;-67
2023/03/30 10:59:46;;;;;;;2.93;2.33;;;13.00;99.90;;;;;;5033155;28;20863;-68
2023/03/30 11:02:27;;;;;;;3.00;2.60;;;13.00;99.90;;;;;;5032932;28;20496;-67
2023/03/30 11:04:59;;;;;;;3.43;2.10;;;13.00;99.90;;;;;;5033481;28;20939;-67
2023/03/30 11:07:30;;;;;;;2.40;2.20;;;12.90;99.90;;;;;;5032962;28;20492;-68
2023/03/30 11:10:03;;;;;;;2.70;1.73;;;12.90;99.90;;;;;;5033207;28;20571;-68
2023/03/30 11:12:35;;;;;;;3.37;2.27;;;12.80;99.90;;;;;;5033360;28;21250;-68
2023/03/30 11:15:05;;;;;;;4.27;2.40;;;12.80;99.90;;;;;;5032605;28;20471;-68
2023/03/30 11:17:40;;;;;;;2.67;2.40;;;12.80;99.90;;;;;;5032987;28;20877;-67
2023/03/30 11:20:19;;;;;;;3.57;2.50;;;12.80;99.90;;;;;;5033013;28;20534;-67
2023/03/30 11:22:51;;;;;;;3.53;2.23;;;12.70;99.90;;;;;;5033004;28;20858;-68
2023/03/30 11:25:20;;;;;;;5.23;2.47;;;12.70;99.90;;;;;;5033128;28;20468;-68
2023/03/30 11:27:53;;;;;;;5.57;3.37;;;12.90;99.90;;;;;;5032353;28;20918;-68
2023/03/30 11:30:24;;;;;;;2.87;2.10;;;13.00;99.90;;;;;;5032736;28;20484;-68
2023/03/30 11:32:56;;;;;;;2.50;2.17;;;13.20;99.90;;;;;;5032992;28;20464;-68
2023/03/30 11:35:31;;;;;;;2.63;2.43;;;13.50;99.90;;;;;;5032554;28;20954;-68
2023/03/30 11:38:04;;;;;;;3.30;2.20;;;13.60;99.90;;;;;;5032146;28;20470;-68
2023/03/30 11:40:40;;;;;;;3.90;2.63;;;13.70;99.90;;;;;;5032556;28;20490;-68
2023/03/30 11:43:10;;;;;;;5.13;2.80;;;13.90;99.90;;;;;;5032474;28;20923;-68
2023/03/30 11:45:49;;;;;;;3.37;2.50;;;13.90;99.90;;;;;;5031436;28;20547;-68
2023/03/30 11:48:42;;;;;;;2.10;1.90;;;13.90;99.90;;;;;;5032317;28;20955;-67
2023/03/30 11:51:20;;;;;;;4.07;2.30;;;13.80;99.90;;;;;;5032005;28;20483;-68
2023/03/30 11:53:56;;;;;;;2.90;2.40;;;13.70;99.90;;;;;;5032451;28;20464;-68
2023/03/30 11:56:30;;;;;;;3.90;2.17;;;13.70;99.90;;;;;;5033001;28;20883;-68
2023/03/30 11:59:04;;;;;;;3.57;2.03;;;13.80;99.90;;;;;;5032191;28;20460;-68
2023/03/30 12:01:50;;;;;;;2.77;2.10;;;13.90;99.90;;;;;;5032239;28;20488;-69
2023/03/30 12:04:24;;;;;;;5.47;2.67;;;14.00;99.90;;;;;;5032082;28;20456;-68
2023/03/30 12:06:57;;;;;;;2.97;2.00;;;13.90;99.90;;;;;;5032066;28;20464;-68
2023/03/30 12:09:26;;;;;;;4.30;2.50;;;14.10;99.90;;;;;;5031954;28;20506;-70
2023/03/30 12:12:01;;;;;;;3.13;2.33;;;14.30;99.90;;;;;;5032357;28;20827;-69
2023/03/30 12:14:49;;;;;;;4.53;2.30;;;14.40;99.90;;;;;;5031993;28;20874;-70
2023/03/30 12:17:29;;;;;;;2.60;1.87;;;14.40;99.90;;;;;;5031632;28;20465;-69
2023/03/30 12:20:03;;;;;;;3.23;2.43;;;14.10;99.90;;;;;;5032262;28;20533;-67
2023/03/30 12:22:36;;;;;;;2.97;2.10;;;13.90;99.90;;;;;;5031807;28;20460;-67
2023/03/30 12:25:13;;;;;;;3.53;2.47;;;13.80;99.90;;;;;;5031844;28;20471;-68
2023/03/30 12:27:57;;;;;;;6.67;2.63;;;13.80;99.90;;;;;;5031393;28;20510;-67
2023/03/30 12:30:26;;;;;;;5.53;4.43;;;13.90;99.90;;;;;;5031615;28;20508;-67
2023/03/30 12:33:02;;;;;;;4.77;2.67;;;14.40;99.90;;;;;;5031789;28;20464;-70
2023/03/30 12:36:03;;;;;;;4.77;2.63;;;15.30;99.90;;;;;;5031804;28;20456;-70
2023/03/30 12:38:38;;;;;;;3.10;2.53;;;16.20;99.90;;;;;;4950895;29;20494;-70
2023/03/30 12:41:15;;;;;;;3.23;2.30;;;16.40;99.90;;;;;;4950677;28;20491;-70
2023/03/30 12:43:55;;;;;;;9.17;2.30;;;16.20;99.90;;;;;;4996802;28;20468;-70
2023/03/30 12:46:28;;;;;;;3.17;2.40;;;15.90;99.90;;;;;;5031596;28;20554;-70
2023/03/30 12:49:06;;;;;;;4.77;2.50;;;15.80;99.90;;;;;;5031164;28;20467;-70
2023/03/30 12:51:50;;;;;;;2.20;2.00;;;15.90;99.90;;;;;;5030874;28;20909;-66
2023/03/30 12:54:44;;;;;;;2.33;2.13;;;16.10;99.90;;;;;;5031339;28;20522;-68
2023/03/30 12:57:24;;;;;;;2.40;2.10;;;17.00;99.90;;;;;;5031341;28;20838;-68
2023/03/30 13:00:06;;;;;;;3.47;2.30;;;17.60;99.90;;;;;;5031110;28;20480;-70
2023/03/30 13:02:56;;;;;;;1.80;1.70;;;17.20;99.90;;;;;;5031347;28;20562;-67
2023/03/30 13:05:28;;;;;;;10.70;3.03;;;16.80;99.90;;;;;;5031025;28;20554;-67
2023/03/30 13:08:01;;;;;;;3.37;2.77;;;16.70;99.90;;;;;;5030524;28;20471;-70
2023/03/30 13:10:37;;;;;;;3.63;2.13;;;16.30;99.90;;;;;;5031216;28;20488;-68